Terminal Aerodrome Forecast
Issued by NWS Boston, MA

Home | Current Version | Previous Version | Text Only | Print | Product List | Glossary On
Versions: 1 2 3 4 5 6 7 8 9 10 11 12 13 14 15 16 17 18 19 20 21 22 23 24 25 26 27 28 29 30 31 32 33 34 35 36 37 38 39 40
989
FTUS41 KBOX 180343 AAB
TAFORH
TAF AMD
KORH 180343Z 1804/1824 30009KT P6SM BKN008 OVC015
     FM180500 30008KT P6SM SCT015 BKN050
     FM180600 30008KT P6SM SCT060
     FM181500 29010KT P6SM FEW250
     FM181900 30007KT P6SM SKC=

USA.gov is the U.S. government's official web portal to all federal, state and local government web resources and services.